sensor_id;sensor_type;location;lat;lon;timestamp;P1;durP1;ratioP1;P2;durP2;ratioP2
74483;SDS011;62942;52.462;10.846;2023-03-18T00:00:08;4.5;;;9;;
74483;SDS011;62942;52.462;10.846;2023-03-18T00:01:17;4.5;;;7.6;;
74483;SDS011;62942;52.462;10.846;2023-03-18T00:02:17;4.6;;;7.5;;
74483;SDS011;62942;52.462;10.846;2023-03-18T00:03:17;4.8;;;7.8;;
74483;SDS011;62942;52.462;10.846;2023-03-18T00:04:17;4.4;;;6.9;;
74483;SDS011;62942;52.462;10.846;2023-03-18T00:05:17;4.6;;;8.2;;
74483;SDS011;62942;52.462;10.846;2023-03-18T00:06:27;4.6;;;8;;
74483;SDS011;62942;52.462;10.846;2023-03-18T00:07:37;4.3;;;7.8;;
74483;SDS011;62942;52.462;10.846;2023-03-18T00:08:37;4.4;;;7.5;;
74483;SDS011;62942;52.462;10.846;2023-03-18T00:09:37;4.6;;;7.8;;
74483;SDS011;62942;52.462;10.846;2023-03-18T00:10:37;4.4;;;7.3;;
74483;SDS011;62942;52.462;10.846;2023-03-18T00:11:47;4.4;;;7.4;;
74483;SDS011;62942;52.462;10.846;2023-03-18T00:12:57;4.4;;;7.3;;
74483;SDS011;62942;52.462;10.846;2023-03-18T00:13:57;4.3;;;6.4;;
74483;SDS011;62942;52.462;10.846;2023-03-18T00:15:09;4.4;;;8;;
74483;SDS011;62942;52.462;10.846;2023-03-18T00:16:08;4.1;;;7.4;;
74483;SDS011;62942;52.462;10.846;2023-03-18T00:17:17;4.4;;;6.9;;
74483;SDS011;62942;52.462;10.846;2023-03-18T00:18:17;4.3;;;6.9;;
74483;SDS011;62942;52.462;10.846;2023-03-18T00:19:27;4.2;;;7;;
74483;SDS011;62942;52.462;10.846;2023-03-18T00:20:27;4.8;;;8;;
74483;SDS011;62942;52.462;10.846;2023-03-18T00:21:27;4.5;;;7.2;;
74483;SDS011;62942;52.462;10.846;2023-03-18T00:22:38;4.4;;;6.8;;
74483;SDS011;62942;52.462;10.846;2023-03-18T00:23:37;4.1;;;7.1;;
74483;SDS011;62942;52.462;10.846;2023-03-18T00:24:37;4.2;;;6.2;;
74483;SDS011;62942;52.462;10.846;2023-03-18T00:25:47;4.2;;;7.3;;
74483;SDS011;62942;52.462;10.846;2023-03-18T00:26:47;4.4;;;8.5;;
74483;SDS011;62942;52.462;10.846;2023-03-18T00:27:57;4.2;;;7.6;;
74483;SDS011;62942;52.462;10.846;2023-03-18T00:29:07;4.3;;;7.6;;
74483;SDS011;62942;52.462;10.846;2023-03-18T00:30:07;4.3;;;7.4;;
74483;SDS011;62942;52.462;10.846;2023-03-18T00:31:17;4.3;;;6.4;;
74483;SDS011;62942;52.462;10.846;2023-03-18T00:32:27;4.1;;;7;;
74483;SDS011;62942;52.462;10.846;2023-03-18T00:33:38;4;;;6.5;;
74483;SDS011;62942;52.462;10.846;2023-03-18T00:34:47;4.1;;;6.5;;
74483;SDS011;62942;52.462;10.846;2023-03-18T00:35:47;5.3;;;8.8;;
74483;SDS011;62942;52.462;10.846;2023-03-18T00:36:57;7.6;;;11.8;;
74483;SDS011;62942;52.462;10.846;2023-03-18T00:37:57;8.1;;;12;;
74483;SDS011;62942;52.462;10.846;2023-03-18T00:38:57;7.5;;;12.3;;
74483;SDS011;62942;52.462;10.846;2023-03-18T00:40:08;6.9;;;10.7;;
74483;SDS011;62942;52.462;10.846;2023-03-18T00:41:17;6.3;;;10.4;;
74483;SDS011;62942;52.462;10.846;2023-03-18T00:42:27;6.5;;;10;;
74483;SDS011;62942;52.462;10.846;2023-03-18T00:43:38;6;;;8.9;;
74483;SDS011;62942;52.462;10.846;2023-03-18T00:44:37;6.4;;;10.3;;
74483;SDS011;62942;52.462;10.846;2023-03-18T00:45:38;6.5;;;10.1;;
74483;SDS011;62942;52.462;10.846;2023-03-18T00:46:47;6.6;;;10.5;;
74483;SDS011;62942;52.462;10.846;2023-03-18T00:47:47;6.2;;;10;;
74483;SDS011;62942;52.462;10.846;2023-03-18T00:48:58;6.3;;;9.8;;
74483;SDS011;62942;52.462;10.846;2023-03-18T00:49:57;6.3;;;9.3;;
74483;SDS011;62942;52.462;10.846;2023-03-18T00:50:57;5.1;;;8.3;;
74483;SDS011;62942;52.462;10.846;2023-03-18T00:52:07;4.8;;;7.6;;
74483;SDS011;62942;52.462;10.846;2023-03-18T00:53:17;4.5;;;8;;
74483;SDS011;62942;52.462;10.846;2023-03-18T00:54:17;4.5;;;7.1;;
74483;SDS011;62942;52.462;10.846;2023-03-18T00:55:27;4.6;;;8.6;;
74483;SDS011;62942;52.462;10.846;2023-03-18T00:56:28;4.6;;;7.7;;
74483;SDS011;62942;52.462;10.846;2023-03-18T00:57:37;4.6;;;7.2;;
74483;SDS011;62942;52.462;10.846;2023-03-18T00:58:37;4.8;;;7.3;;
74483;SDS011;62942;52.462;10.846;2023-03-18T00:59:47;5.1;;;8;;
74483;SDS011;62942;52.462;10.846;2023-03-18T01:00:47;4.8;;;7.7;;
74483;SDS011;62942;52.462;10.846;2023-03-18T01:01:57;4.4;;;7.2;;
74483;SDS011;62942;52.462;10.846;2023-03-18T01:02:57;4.5;;;7.7;;
74483;SDS011;62942;52.462;10.846;2023-03-18T01:04:07;4.2;;;7;;
74483;SDS011;62942;52.462;10.846;2023-03-18T01:05:17;4.2;;;6.2;;
74483;SDS011;62942;52.462;10.846;2023-03-18T01:06:28;4.1;;;6.1;;
74483;SDS011;62942;52.462;10.846;2023-03-18T01:07:37;4.2;;;7.2;;
74483;SDS011;62942;52.462;10.846;2023-03-18T01:08:37;4;;;7.6;;
74483;SDS011;62942;52.462;10.846;2023-03-18T01:09:37;4.3;;;6.6;;
74483;SDS011;62942;52.462;10.846;2023-03-18T01:10:37;4;;;7.1;;
74483;SDS011;62942;52.462;10.846;2023-03-18T01:11:47;3.7;;;6.7;;
74483;SDS011;62942;52.462;10.846;2023-03-18T01:12:57;4.1;;;6.3;;
74483;SDS011;62942;52.462;10.846;2023-03-18T01:13:57;4.1;;;7.7;;
74483;SDS011;62942;52.462;10.846;2023-03-18T01:14:57;4.2;;;7.7;;
74483;SDS011;62942;52.462;10.846;2023-03-18T01:16:07;3.9;;;6.1;;
74483;SDS011;62942;52.462;10.846;2023-03-18T01:17:17;4.1;;;6.4;;
74483;SDS011;62942;52.462;10.846;2023-03-18T01:18:27;3.9;;;6.6;;
74483;SDS011;62942;52.462;10.846;2023-03-18T01:19:37;4.2;;;7.3;;
74483;SDS011;62942;52.462;10.846;2023-03-18T01:20:47;3.7;;;5.7;;
74483;SDS011;62942;52.462;10.846;2023-03-18T01:21:57;4.1;;;6.6;;
74483;SDS011;62942;52.462;10.846;2023-03-18T01:23:07;4;;;7.7;;
74483;SDS011;62942;52.462;10.846;2023-03-18T01:24:07;3.9;;;8.1;;
74483;SDS011;62942;52.462;10.846;2023-03-18T01:25:17;4.2;;;6.4;;
74483;SDS011;62942;52.462;10.846;2023-03-18T01:26:27;4;;;7.2;;
74483;SDS011;62942;52.462;10.846;2023-03-18T01:27:37;4.3;;;6.9;;
74483;SDS011;62942;52.462;10.846;2023-03-18T01:28:47;3.9;;;6.4;;
74483;SDS011;62942;52.462;10.846;2023-03-18T01:29:57;4;;;6.3;;
74483;SDS011;62942;52.462;10.846;2023-03-18T01:30:57;4.3;;;6.9;;
74483;SDS011;62942;52.462;10.846;2023-03-18T01:31:57;4.1;;;6.2;;
74483;SDS011;62942;52.462;10.846;2023-03-18T01:33:07;4;;;7.1;;
74483;SDS011;62942;52.462;10.846;2023-03-18T01:34:17;4.1;;;6.7;;
74483;SDS011;62942;52.462;10.846;2023-03-18T01:35:27;4;;;6.2;;
74483;SDS011;62942;52.462;10.846;2023-03-18T01:36:37;4.1;;;6.4;;
74483;SDS011;62942;52.462;10.846;2023-03-18T01:37:37;4.2;;;8.5;;
74483;SDS011;62942;52.462;10.846;2023-03-18T01:38:37;4.1;;;6.5;;
74483;SDS011;62942;52.462;10.846;2023-03-18T01:39:47;4.1;;;7.2;;
74483;SDS011;62942;52.462;10.846;2023-03-18T01:40:57;4;;;7.9;;
74483;SDS011;62942;52.462;10.846;2023-03-18T01:41:57;4;;;6.4;;
74483;SDS011;62942;52.462;10.846;2023-03-18T01:42:58;4.2;;;6.9;;
74483;SDS011;62942;52.462;10.846;2023-03-18T01:43:57;3.9;;;6.9;;
74483;SDS011;62942;52.462;10.846;2023-03-18T01:45:13;4.2;;;7.6;;
74483;SDS011;62942;52.462;10.846;2023-03-18T01:46:34;3.9;;;7.8;;
74483;SDS011;62942;52.462;10.846;2023-03-18T01:47:27;4.1;;;6.7;;
74483;SDS011;62942;52.462;10.846;2023-03-18T01:48:28;3.8;;;6.2;;
74483;SDS011;62942;52.462;10.846;2023-03-18T01:49:37;4.1;;;7.5;;
74483;SDS011;62942;52.462;10.846;2023-03-18T01:50:37;4;;;7.2;;
74483;SDS011;62942;52.462;10.846;2023-03-18T01:51:37;3.5;;;6.9;;
74483;SDS011;62942;52.462;10.846;2023-03-18T01:52:47;3.8;;;6.6;;
74483;SDS011;62942;52.462;10.846;2023-03-18T01:53:58;3.7;;;5.9;;
74483;SDS011;62942;52.462;10.846;2023-03-18T01:55:08;3.7;;;6;;
74483;SDS011;62942;52.462;10.846;2023-03-18T01:56:17;3.5;;;5.8;;
74483;SDS011;62942;52.462;10.846;2023-03-18T01:57:27;3.8;;;6.7;;
74483;SDS011;62942;52.462;10.846;2023-03-18T01:58:28;3.6;;;6.1;;
74483;SDS011;62942;52.462;10.846;2023-03-18T01:59:39;3.8;;;5.8;;
74483;SDS011;62942;52.462;10.846;2023-03-18T02:00:48;3.4;;;5.3;;
74483;SDS011;62942;52.462;10.846;2023-03-18T02:01:58;3.4;;;6.8;;
74483;SDS011;62942;52.462;10.846;2023-03-18T02:02:57;3.2;;;5.1;;
74483;SDS011;62942;52.462;10.846;2023-03-18T02:04:07;3.3;;;6;;
74483;SDS011;62942;52.462;10.846;2023-03-18T02:05:08;3.4;;;7.2;;
74483;SDS011;62942;52.462;10.846;2023-03-18T02:06:17;3.2;;;5.5;;
74483;SDS011;62942;52.462;10.846;2023-03-18T02:07:28;3.3;;;6;;
74483;SDS011;62942;52.462;10.846;2023-03-18T02:08:37;3.1;;;5.5;;
74483;SDS011;62942;52.462;10.846;2023-03-18T02:09:48;2.9;;;4.5;;
74483;SDS011;62942;52.462;10.846;2023-03-18T02:10:47;3.2;;;6.6;;
74483;SDS011;62942;52.462;10.846;2023-03-18T02:11:47;2.9;;;5;;
74483;SDS011;62942;52.462;10.846;2023-03-18T02:12:48;2.9;;;5.5;;
74483;SDS011;62942;52.462;10.846;2023-03-18T02:13:57;3;;;6.5;;
74483;SDS011;62942;52.462;10.846;2023-03-18T02:14:57;3.2;;;5.8;;
74483;SDS011;62942;52.462;10.846;2023-03-18T02:16:08;3;;;6.6;;
74483;SDS011;62942;52.462;10.846;2023-03-18T02:17:17;3;;;5.7;;
74483;SDS011;62942;52.462;10.846;2023-03-18T02:18:21;2.9;;;4.9;;
74483;SDS011;62942;52.462;10.846;2023-03-18T02:19:30;3;;;6.3;;
74483;SDS011;62942;52.462;10.846;2023-03-18T02:20:39;2.8;;;5.1;;
74483;SDS011;62942;52.462;10.846;2023-03-18T02:21:39;3;;;6.1;;
74483;SDS011;62942;52.462;10.846;2023-03-18T02:22:49;3;;;5.2;;
74483;SDS011;62942;52.462;10.846;2023-03-18T02:23:59;3.1;;;4.8;;
74483;SDS011;62942;52.462;10.846;2023-03-18T02:25:12;2.9;;;5.2;;
74483;SDS011;62942;52.462;10.846;2023-03-18T02:26:19;3.1;;;6.1;;
74483;SDS011;62942;52.462;10.846;2023-03-18T02:27:28;3;;;5;;
74483;SDS011;62942;52.462;10.846;2023-03-18T02:28:27;2.9;;;5.7;;
74483;SDS011;62942;52.462;10.846;2023-03-18T02:29:37;2.7;;;4.8;;
74483;SDS011;62942;52.462;10.846;2023-03-18T02:30:38;2.8;;;5.2;;
74483;SDS011;62942;52.462;10.846;2023-03-18T02:31:47;2.8;;;5.5;;
74483;SDS011;62942;52.462;10.846;2023-03-18T02:32:47;2.6;;;4.7;;
74483;SDS011;62942;52.462;10.846;2023-03-18T02:33:47;3;;;5.3;;
74483;SDS011;62942;52.462;10.846;2023-03-18T02:34:58;2.6;;;5;;
74483;SDS011;62942;52.462;10.846;2023-03-18T02:36:08;2.6;;;5.8;;
74483;SDS011;62942;52.462;10.846;2023-03-18T02:37:17;2.6;;;4.9;;
74483;SDS011;62942;52.462;10.846;2023-03-18T02:38:27;2.7;;;7.2;;
74483;SDS011;62942;52.462;10.846;2023-03-18T02:39:37;2.6;;;4.7;;
74483;SDS011;62942;52.462;10.846;2023-03-18T02:40:38;2.3;;;5.9;;
74483;SDS011;62942;52.462;10.846;2023-03-18T02:41:47;2.4;;;4.7;;
74483;SDS011;62942;52.462;10.846;2023-03-18T02:42:47;2.4;;;4.8;;
74483;SDS011;62942;52.462;10.846;2023-03-18T02:43:47;2.4;;;4.9;;
74483;SDS011;62942;52.462;10.846;2023-03-18T02:44:57;2.6;;;6.4;;
74483;SDS011;62942;52.462;10.846;2023-03-18T02:46:11;2.2;;;4.2;;
74483;SDS011;62942;52.462;10.846;2023-03-18T02:47:17;2.3;;;5.2;;
74483;SDS011;62942;52.462;10.846;2023-03-18T02:48:27;2.4;;;5.9;;
74483;SDS011;62942;52.462;10.846;2023-03-18T02:49:27;2.3;;;4.2;;
74483;SDS011;62942;52.462;10.846;2023-03-18T02:50:27;2.5;;;6.1;;
74483;SDS011;62942;52.462;10.846;2023-03-18T02:51:37;2.3;;;5.2;;
74483;SDS011;62942;52.462;10.846;2023-03-18T02:52:47;2.4;;;4.7;;
74483;SDS011;62942;52.462;10.846;2023-03-18T02:53:57;2.4;;;4.8;;
74483;SDS011;62942;52.462;10.846;2023-03-18T02:55:07;2.3;;;4.8;;
74483;SDS011;62942;52.462;10.846;2023-03-18T02:56:07;2.3;;;3.9;;
74483;SDS011;62942;52.462;10.846;2023-03-18T02:57:17;2.6;;;5.3;;
74483;SDS011;62942;52.462;10.846;2023-03-18T02:58:27;2.2;;;4.6;;
74483;SDS011;62942;52.462;10.846;2023-03-18T02:59:37;2.4;;;4.8;;
74483;SDS011;62942;52.462;10.846;2023-03-18T03:00:37;2.4;;;6.3;;
74483;SDS011;62942;52.462;10.846;2023-03-18T03:01:47;2.4;;;4.5;;
74483;SDS011;62942;52.462;10.846;2023-03-18T03:02:57;2.5;;;6;;
74483;SDS011;62942;52.462;10.846;2023-03-18T03:04:07;2.3;;;4.5;;
74483;SDS011;62942;52.462;10.846;2023-03-18T03:05:17;2.4;;;5.2;;
74483;SDS011;62942;52.462;10.846;2023-03-18T03:06:27;2.2;;;4.8;;
74483;SDS011;62942;52.462;10.846;2023-03-18T03:07:27;2.3;;;4.6;;
74483;SDS011;62942;52.462;10.846;2023-03-18T03:08:37;2.1;;;4.1;;
74483;SDS011;62942;52.462;10.846;2023-03-18T03:09:37;2.3;;;5.5;;
74483;SDS011;62942;52.462;10.846;2023-03-18T03:10:37;2.3;;;4.4;;
74483;SDS011;62942;52.462;10.846;2023-03-18T03:11:47;2.2;;;4.6;;
74483;SDS011;62942;52.462;10.846;2023-03-18T03:12:47;2.2;;;4.2;;
74483;SDS011;62942;52.462;10.846;2023-03-18T03:13:57;2.3;;;4;;
74483;SDS011;62942;52.462;10.846;2023-03-18T03:14:57;2.1;;;4.3;;
74483;SDS011;62942;52.462;10.846;2023-03-18T03:16:07;2.1;;;5;;
74483;SDS011;62942;52.462;10.846;2023-03-18T03:17:17;2.2;;;5.1;;
74483;SDS011;62942;52.462;10.846;2023-03-18T03:18:17;2;;;4.3;;
74483;SDS011;62942;52.462;10.846;2023-03-18T03:19:27;2.1;;;5;;
74483;SDS011;62942;52.462;10.846;2023-03-18T03:20:27;2.2;;;4.6;;
74483;SDS011;62942;52.462;10.846;2023-03-18T03:21:27;2.2;;;4.9;;
74483;SDS011;62942;52.462;10.846;2023-03-18T03:22:37;2.3;;;4.3;;
74483;SDS011;62942;52.462;10.846;2023-03-18T03:23:47;2;;;4.4;;
74483;SDS011;62942;52.462;10.846;2023-03-18T03:24:47;2.2;;;4.7;;
74483;SDS011;62942;52.462;10.846;2023-03-18T03:25:47;2.1;;;4.6;;
74483;SDS011;62942;52.462;10.846;2023-03-18T03:26:57;2.1;;;4.8;;
74483;SDS011;62942;52.462;10.846;2023-03-18T03:27:57;2.1;;;4.6;;
74483;SDS011;62942;52.462;10.846;2023-03-18T03:28:57;2.1;;;5;;
74483;SDS011;62942;52.462;10.846;2023-03-18T03:30:08;2.2;;;5.4;;
74483;SDS011;62942;52.462;10.846;2023-03-18T03:31:07;2.1;;;5.4;;
74483;SDS011;62942;52.462;10.846;2023-03-18T03:32:17;2;;;5.8;;
74483;SDS011;62942;52.462;10.846;2023-03-18T03:33:27;2;;;3.6;;
74483;SDS011;62942;52.462;10.846;2023-03-18T03:34:37;2.1;;;4.6;;
74483;SDS011;62942;52.462;10.846;2023-03-18T03:35:47;2.1;;;4.5;;
74483;SDS011;62942;52.462;10.846;2023-03-18T03:36:57;2;;;4.4;;
74483;SDS011;62942;52.462;10.846;2023-03-18T03:37:57;2.1;;;4.9;;
74483;SDS011;62942;52.462;10.846;2023-03-18T03:39:07;2.1;;;4.6;;
74483;SDS011;62942;52.462;10.846;2023-03-18T03:40:07;2;;;4.5;;
74483;SDS011;62942;52.462;10.846;2023-03-18T03:41:17;2.1;;;4.9;;
74483;SDS011;62942;52.462;10.846;2023-03-18T03:42:27;2;;;4.4;;
74483;SDS011;62942;52.462;10.846;2023-03-18T03:43:37;2.1;;;5.6;;
74483;SDS011;62942;52.462;10.846;2023-03-18T03:44:37;2.2;;;5.7;;
74483;SDS011;62942;52.462;10.846;2023-03-18T03:45:37;2.1;;;4.5;;
74483;SDS011;62942;52.462;10.846;2023-03-18T03:46:47;2;;;5.3;;
74483;SDS011;62942;52.462;10.846;2023-03-18T03:47:47;2;;;4.7;;
74483;SDS011;62942;52.462;10.846;2023-03-18T03:48:57;1.9;;;5;;
74483;SDS011;62942;52.462;10.846;2023-03-18T03:50:07;2;;;4.6;;
74483;SDS011;62942;52.462;10.846;2023-03-18T03:51:07;2.1;;;6.3;;
74483;SDS011;62942;52.462;10.846;2023-03-18T03:52:17;2;;;4.2;;
74483;SDS011;62942;52.462;10.846;2023-03-18T03:53:17;2;;;5.6;;
74483;SDS011;62942;52.462;10.846;2023-03-18T03:54:27;2.1;;;5;;
74483;SDS011;62942;52.462;10.846;2023-03-18T03:55:27;2;;;4.5;;
74483;SDS011;62942;52.462;10.846;2023-03-18T03:56:27;1.9;;;4.3;;
74483;SDS011;62942;52.462;10.846;2023-03-18T03:57:37;2;;;4.8;;
74483;SDS011;62942;52.462;10.846;2023-03-18T03:58:47;2.1;;;5;;
74483;SDS011;62942;52.462;10.846;2023-03-18T03:59:47;2.2;;;4.9;;
74483;SDS011;62942;52.462;10.846;2023-03-18T04:00:57;2.1;;;4.8;;
74483;SDS011;62942;52.462;10.846;2023-03-18T04:02:07;1.9;;;3.9;;
74483;SDS011;62942;52.462;10.846;2023-03-18T04:03:07;2.1;;;4.8;;
74483;SDS011;62942;52.462;10.846;2023-03-18T04:04:07;2.1;;;4.9;;
74483;SDS011;62942;52.462;10.846;2023-03-18T04:05:17;2.2;;;4.5;;
74483;SDS011;62942;52.462;10.846;2023-03-18T04:06:17;2.2;;;5.2;;
74483;SDS011;62942;52.462;10.846;2023-03-18T04:07:27;2.1;;;5.5;;
74483;SDS011;62942;52.462;10.846;2023-03-18T04:08:27;2.1;;;5.6;;
74483;SDS011;62942;52.462;10.846;2023-03-18T04:09:37;2.2;;;5.8;;
74483;SDS011;62942;52.462;10.846;2023-03-18T04:10:37;2.1;;;5.3;;
74483;SDS011;62942;52.462;10.846;2023-03-18T04:11:47;2;;;4.2;;
74483;SDS011;62942;52.462;10.846;2023-03-18T04:12:57;2;;;5.6;;
74483;SDS011;62942;52.462;10.846;2023-03-18T04:14:07;2.2;;;4.7;;
74483;SDS011;62942;52.462;10.846;2023-03-18T04:15:17;2.1;;;4.8;;
74483;SDS011;62942;52.462;10.846;2023-03-18T04:16:17;2.2;;;4.9;;
74483;SDS011;62942;52.462;10.846;2023-03-18T04:17:17;2.3;;;5;;
74483;SDS011;62942;52.462;10.846;2023-03-18T04:18:27;2.2;;;7.1;;
74483;SDS011;62942;52.462;10.846;2023-03-18T04:19:37;2.1;;;6.5;;
74483;SDS011;62942;52.462;10.846;2023-03-18T04:20:37;2.2;;;5.4;;
74483;SDS011;62942;52.462;10.846;2023-03-18T04:21:47;2.3;;;4.9;;
74483;SDS011;62942;52.462;10.846;2023-03-18T04:22:47;2.3;;;5.3;;
74483;SDS011;62942;52.462;10.846;2023-03-18T04:23:57;2.3;;;4.8;;
74483;SDS011;62942;52.462;10.846;2023-03-18T04:25:07;2.3;;;4.7;;
74483;SDS011;62942;52.462;10.846;2023-03-18T04:26:07;2.4;;;5.8;;
74483;SDS011;62942;52.462;10.846;2023-03-18T04:27:07;2.4;;;6.4;;
74483;SDS011;62942;52.462;10.846;2023-03-18T04:28:17;2.3;;;4.8;;
74483;SDS011;62942;52.462;10.846;2023-03-18T04:29:17;2.4;;;6.4;;
74483;SDS011;62942;52.462;10.846;2023-03-18T04:30:27;2.3;;;6.6;;
74483;SDS011;62942;52.462;10.846;2023-03-18T04:31:37;2.4;;;6.8;;
74483;SDS011;62942;52.462;10.846;2023-03-18T04:32:47;2.3;;;6;;
74483;SDS011;62942;52.462;10.846;2023-03-18T04:33:57;2.4;;;6;;
74483;SDS011;62942;52.462;10.846;2023-03-18T04:34:57;2.3;;;5.2;;
74483;SDS011;62942;52.462;10.846;2023-03-18T04:36:07;2.4;;;5;;
74483;SDS011;62942;52.462;10.846;2023-03-18T04:37:17;2.3;;;5;;
74483;SDS011;62942;52.462;10.846;2023-03-18T04:38:17;2.5;;;6.1;;
74483;SDS011;62942;52.462;10.846;2023-03-18T04:39:27;2.4;;;5.5;;
74483;SDS011;62942;52.462;10.846;2023-03-18T04:40:37;2.4;;;4.8;;
74483;SDS011;62942;52.462;10.846;2023-03-18T04:41:37;2.5;;;5.6;;
74483;SDS011;62942;52.462;10.846;2023-03-18T04:42:47;2.4;;;6.2;;
74483;SDS011;62942;52.462;10.846;2023-03-18T04:43:47;2.5;;;5;;
74483;SDS011;62942;52.462;10.846;2023-03-18T04:44:47;2.5;;;6.2;;
74483;SDS011;62942;52.462;10.846;2023-03-18T04:45:47;2.5;;;5.9;;
74483;SDS011;62942;52.462;10.846;2023-03-18T04:46:57;2.5;;;5.6;;
74483;SDS011;62942;52.462;10.846;2023-03-18T04:48:07;2.6;;;7;;
74483;SDS011;62942;52.462;10.846;2023-03-18T04:49:07;2.7;;;6.7;;
74483;SDS011;62942;52.462;10.846;2023-03-18T04:50:07;2.7;;;5.8;;
74483;SDS011;62942;52.462;10.846;2023-03-18T04:51:07;2.8;;;6.4;;
74483;SDS011;62942;52.462;10.846;2023-03-18T04:52:17;2.8;;;8.4;;
74483;SDS011;62942;52.462;10.846;2023-03-18T04:53:17;2.6;;;5.6;;
74483;SDS011;62942;52.462;10.846;2023-03-18T04:54:27;2.7;;;5.6;;
74483;SDS011;62942;52.462;10.846;2023-03-18T04:55:27;2.5;;;6.5;;
74483;SDS011;62942;52.462;10.846;2023-03-18T04:56:27;2.7;;;6.3;;
74483;SDS011;62942;52.462;10.846;2023-03-18T04:57:37;2.8;;;5.9;;
74483;SDS011;62942;52.462;10.846;2023-03-18T04:58:37;2.9;;;6.4;;
74483;SDS011;62942;52.462;10.846;2023-03-18T04:59:37;2.9;;;7;;
74483;SDS011;62942;52.462;10.846;2023-03-18T05:00:47;2.8;;;6.9;;
74483;SDS011;62942;52.462;10.846;2023-03-18T05:01:47;2.8;;;6.7;;
74483;SDS011;62942;52.462;10.846;2023-03-18T05:02:57;2.9;;;6.1;;
74483;SDS011;62942;52.462;10.846;2023-03-18T05:04:07;2.8;;;5.9;;
74483;SDS011;62942;52.462;10.846;2023-03-18T05:05:07;2.7;;;5.6;;
74483;SDS011;62942;52.462;10.846;2023-03-18T05:06:21;2.6;;;5.4;;
74483;SDS011;62942;52.462;10.846;2023-03-18T05:07:27;2.7;;;6.1;;
74483;SDS011;62942;52.462;10.846;2023-03-18T05:08:27;2.9;;;7.1;;
74483;SDS011;62942;52.462;10.846;2023-03-18T05:09:27;2.7;;;6.7;;
74483;SDS011;62942;52.462;10.846;2023-03-18T05:10:37;2.7;;;6.3;;
74483;SDS011;62942;52.462;10.846;2023-03-18T05:11:37;2.8;;;6.1;;
74483;SDS011;62942;52.462;10.846;2023-03-18T05:12:47;2.7;;;6.4;;
74483;SDS011;62942;52.462;10.846;2023-03-18T05:13:47;2.7;;;5.6;;
74483;SDS011;62942;52.462;10.846;2023-03-18T05:14:57;2.5;;;5.7;;
74483;SDS011;62942;52.462;10.846;2023-03-18T05:16:07;2.7;;;6.6;;
74483;SDS011;62942;52.462;10.846;2023-03-18T05:17:07;2.7;;;7.8;;
74483;SDS011;62942;52.462;10.846;2023-03-18T05:18:17;2.8;;;6.5;;
74483;SDS011;62942;52.462;10.846;2023-03-18T05:19:27;2.6;;;6.2;;
74483;SDS011;62942;52.462;10.846;2023-03-18T05:20:27;2.8;;;6.4;;
74483;SDS011;62942;52.462;10.846;2023-03-18T05:21:27;2.6;;;6.4;;
74483;SDS011;62942;52.462;10.846;2023-03-18T05:22:27;2.8;;;6.6;;
74483;SDS011;62942;52.462;10.846;2023-03-18T05:23:27;2.6;;;6.1;;
74483;SDS011;62942;52.462;10.846;2023-03-18T05:24:37;2.6;;;6;;
74483;SDS011;62942;52.462;10.846;2023-03-18T05:25:37;2.7;;;5.5;;
74483;SDS011;62942;52.462;10.846;2023-03-18T05:26:37;2.6;;;5;;
74483;SDS011;62942;52.462;10.846;2023-03-18T05:27:37;2.7;;;5.2;;
74483;SDS011;62942;52.462;10.846;2023-03-18T05:28:37;2.7;;;6.7;;
74483;SDS011;62942;52.462;10.846;2023-03-18T05:29:47;2.7;;;5.8;;
74483;SDS011;62942;52.462;10.846;2023-03-18T05:30:47;2.7;;;6;;
74483;SDS011;62942;52.462;10.846;2023-03-18T05:31:47;2.7;;;6.4;;
74483;SDS011;62942;52.462;10.846;2023-03-18T05:32:57;2.8;;;7;;
74483;SDS011;62942;52.462;10.846;2023-03-18T05:33:57;2.8;;;5.6;;
74483;SDS011;62942;52.462;10.846;2023-03-18T05:35:07;2.7;;;6.8;;
74483;SDS011;62942;52.462;10.846;2023-03-18T05:36:07;2.9;;;6.8;;
74483;SDS011;62942;52.462;10.846;2023-03-18T05:37:17;2.7;;;6.5;;
74483;SDS011;62942;52.462;10.846;2023-03-18T05:38:17;2.7;;;5.7;;
74483;SDS011;62942;52.462;10.846;2023-03-18T05:39:17;2.8;;;5.8;;
74483;SDS011;62942;52.462;10.846;2023-03-18T05:40:27;2.7;;;6.7;;
74483;SDS011;62942;52.462;10.846;2023-03-18T05:41:27;2.9;;;6.6;;
74483;SDS011;62942;52.462;10.846;2023-03-18T05:42:27;2.7;;;5.3;;
74483;SDS011;62942;52.462;10.846;2023-03-18T05:43:37;2.6;;;5.8;;
74483;SDS011;62942;52.462;10.846;2023-03-18T05:44:37;2.7;;;6;;
74483;SDS011;62942;52.462;10.846;2023-03-18T05:45:47;2.8;;;5.4;;
74483;SDS011;62942;52.462;10.846;2023-03-18T05:46:57;2.9;;;5.9;;
74483;SDS011;62942;52.462;10.846;2023-03-18T05:47:57;2.7;;;5.6;;
74483;SDS011;62942;52.462;10.846;2023-03-18T05:49:07;2.8;;;6.3;;
74483;SDS011;62942;52.462;10.846;2023-03-18T05:50:07;2.8;;;6.1;;
74483;SDS011;62942;52.462;10.846;2023-03-18T05:51:17;3.2;;;7.1;;
74483;SDS011;62942;52.462;10.846;2023-03-18T05:52:27;2.7;;;6.2;;
74483;SDS011;62942;52.462;10.846;2023-03-18T05:53:27;3;;;7.1;;
74483;SDS011;62942;52.462;10.846;2023-03-18T05:54:37;2.9;;;5.7;;
74483;SDS011;62942;52.462;10.846;2023-03-18T05:55:37;3.1;;;7;;
74483;SDS011;62942;52.462;10.846;2023-03-18T05:56:37;2.9;;;6.4;;
74483;SDS011;62942;52.462;10.846;2023-03-18T05:57:37;2.8;;;6.2;;
74483;SDS011;62942;52.462;10.846;2023-03-18T05:58:47;3;;;6.2;;
74483;SDS011;62942;52.462;10.846;2023-03-18T05:59:57;2.9;;;6.3;;
74483;SDS011;62942;52.462;10.846;2023-03-18T06:00:57;3.1;;;5.9;;
74483;SDS011;62942;52.462;10.846;2023-03-18T06:02:07;3;;;6.1;;
74483;SDS011;62942;52.462;10.846;2023-03-18T06:03:07;2.9;;;5.7;;
74483;SDS011;62942;52.462;10.846;2023-03-18T06:04:07;3.1;;;6;;
74483;SDS011;62942;52.462;10.846;2023-03-18T06:05:17;3.1;;;7.6;;
74483;SDS011;62942;52.462;10.846;2023-03-18T06:06:27;3.2;;;7.7;;
74483;SDS011;62942;52.462;10.846;2023-03-18T06:07:27;3.2;;;7;;
74483;SDS011;62942;52.462;10.846;2023-03-18T06:08:37;3.2;;;7.4;;
74483;SDS011;62942;52.462;10.846;2023-03-18T06:09:37;3.3;;;7.6;;
74483;SDS011;62942;52.462;10.846;2023-03-18T06:10:37;3.1;;;7.2;;
74483;SDS011;62942;52.462;10.846;2023-03-18T06:11:47;2.8;;;5;;
74483;SDS011;62942;52.462;10.846;2023-03-18T06:12:57;3.4;;;6.9;;
74483;SDS011;62942;52.462;10.846;2023-03-18T06:13:57;3.2;;;6.8;;
74483;SDS011;62942;52.462;10.846;2023-03-18T06:14:57;2.9;;;6.8;;
74483;SDS011;62942;52.462;10.846;2023-03-18T06:16:07;3;;;6;;
74483;SDS011;62942;52.462;10.846;2023-03-18T06:17:07;3.1;;;6.9;;
74483;SDS011;62942;52.462;10.846;2023-03-18T06:18:17;3.2;;;6.5;;
74483;SDS011;62942;52.462;10.846;2023-03-18T06:19:27;2.9;;;6.2;;
74483;SDS011;62942;52.462;10.846;2023-03-18T06:20:26;3.3;;;6.6;;
74483;SDS011;62942;52.462;10.846;2023-03-18T06:21:27;3;;;6.5;;
74483;SDS011;62942;52.462;10.846;2023-03-18T06:22:27;2.9;;;6.5;;
74483;SDS011;62942;52.462;10.846;2023-03-18T06:23:37;2.9;;;6.2;;
74483;SDS011;62942;52.462;10.846;2023-03-18T06:24:47;2.9;;;5.5;;
74483;SDS011;62942;52.462;10.846;2023-03-18T06:25:56;3.1;;;5.7;;
74483;SDS011;62942;52.462;10.846;2023-03-18T06:26:57;3.1;;;6.2;;
74483;SDS011;62942;52.462;10.846;2023-03-18T06:27:57;3.1;;;5.8;;
74483;SDS011;62942;52.462;10.846;2023-03-18T06:29:07;3.1;;;6.4;;
74483;SDS011;62942;52.462;10.846;2023-03-18T06:30:17;3.1;;;6.9;;
74483;SDS011;62942;52.462;10.846;2023-03-18T06:31:17;3;;;6.4;;
74483;SDS011;62942;52.462;10.846;2023-03-18T06:32:17;3;;;6.3;;
74483;SDS011;62942;52.462;10.846;2023-03-18T06:33:16;3;;;5.8;;
74483;SDS011;62942;52.462;10.846;2023-03-18T06:34:27;3.4;;;8;;
74483;SDS011;62942;52.462;10.846;2023-03-18T06:35:37;2.8;;;5.3;;
74483;SDS011;62942;52.462;10.846;2023-03-18T06:36:36;3.1;;;6.3;;
74483;SDS011;62942;52.462;10.846;2023-03-18T06:37:37;3.1;;;5.8;;
74483;SDS011;62942;52.462;10.846;2023-03-18T06:38:46;3.1;;;8.1;;
74483;SDS011;62942;52.462;10.846;2023-03-18T06:39:46;3;;;7.4;;
74483;SDS011;62942;52.462;10.846;2023-03-18T06:40:46;3.2;;;7.4;;
74483;SDS011;62942;52.462;10.846;2023-03-18T06:41:56;3.1;;;6.3;;
74483;SDS011;62942;52.462;10.846;2023-03-18T06:42:56;3.1;;;7.9;;